Tonic Sea — D5AZ8 — position and weather

sailwx.info

Track history (hours):
 
Tides and Currents Weather Stations Pressure Air Temp Water Temp Dewpoint Dewpoint Depression Visibility Wind Speed Wind Dir Waves Ship Positions

Tonic Sea

Last reported at 2018-Feb-23 01:00 UTC. Time now 2018-Feb-23 01:11 UTC.
Position N 57°45' E 010°55'.

Length 229 m; draft 14.4 m.

Type: Cargo ship. MMSI: 636015479.

Date/timePositionNaut miles runAvg speedWind from/ knotsBaromVisibWave heightAir tempDewpointWater temp
2018-Feb-23 01:00N 57°45' E 010°55'611.6
2018-Feb-23 00:30N 57°40' E 011°02'611.7
2018-Feb-23 00:00N 57°36' E 011°10'611.4
2018-Feb-22 23:30N 57°32' E 011°18'611.4
2018-Feb-22 23:00N 57°28' E 011°25'611.2
2018-Feb-22 22:30N 57°23' E 011°29'611.5
2018-Feb-22 22:00N 57°18' E 011°33'12510.1
2018-Feb-22 09:34N 55°13' E 011°06'111.1
2018-Feb-22 09:30N 55°12' E 011°06'510.8
2018-Feb-22 09:00N 55°08' E 010°60'612.0
2018-Feb-22 08:30N 55°03' E 010°60'611.6
2018-Feb-22 08:00N 54°57' E 010°55'612.1
2018-Feb-22 07:30N 54°52' E 010°50'612.2
2018-Feb-22 07:01N 54°46' E 010°48'510.2
2018-Feb-22 06:30N 54°41' E 010°47'510.5
2018-Feb-22 06:00N 54°38' E 010°54'611.8
2018-Feb-22 05:30N 54°36' E 011°04'611.7
2018-Feb-22 05:00N 54°35' E 011°14'612.3
2018-Feb-22 04:31N 54°32' E 011°23'1611.8
2018-Feb-22 03:10N 54°26' E 011°48'211.8
2018-Feb-22 03:00N 54°26' E 011°52'611.8
2018-Feb-22 02:30N 54°26' E 012°02'611.0
2018-Feb-22 01:58N 54°28' E 012°11'6211.3
2018-Feb-21 20:28N 54°60' E 013°44'811.9
2018-Feb-21 19:46N 55°03' E 013°57'811.1
2018-Feb-21 19:03N 55°07' E 014°09'111.8
2018-Feb-21 18:58N 55°08' E 014°10'511.9
2018-Feb-21 18:30N 55°12' E 014°16'711.8
2018-Feb-21 17:54N 55°18' E 014°24'511.9
2018-Feb-21 17:27N 55°22' E 014°30'611.6
2018-Feb-21 16:56N 55°26' E 014°37'511.8
2018-Feb-21 16:30N 55°29' E 014°45'611.8
2018-Feb-21 16:00N 55°31' E 014°54'611.9
2018-Feb-21 15:30N 55°34' E 015°04'611.8
2018-Feb-21 15:00N 55°36' E 015°13'611.6
2018-Feb-21 14:30N 55°38' E 015°23'611.6
2018-Feb-21 14:00N 55°40' E 015°33'611.7
2018-Feb-21 13:30N 55°41' E 015°43'611.7
2018-Feb-21 13:00N 55°43' E 015°53'611.7
2018-Feb-21 12:30N 55°44' E 016°03'611.5
2018-Feb-21 12:00N 55°46' E 016°13'611.6
2018-Feb-21 11:30N 55°47' E 016°23'611.7
2018-Feb-21 11:00N 55°49' E 016°33'611.6
2018-Feb-21 10:30N 55°50' E 016°43'29711.4
2018-Feb-20 08:22N 59°33' E 022°50'411.8
2018-Feb-20 08:00N 59°34' E 022°58'611.8
2018-Feb-20 07:30N 59°36' E 023°09'612.2
2018-Feb-20 07:00N 59°38' E 023°21'611.9
2018-Feb-20 06:30N 59°39' E 023°32'611.8
2018-Feb-20 06:00N 59°41' E 023°44'611.9
2018-Feb-20 05:30N 59°42' E 023°55'612.0
2018-Feb-20 04:58N 59°44' E 024°07'611.9
2018-Feb-20 04:30N 59°46' E 024°18'611.9
2018-Feb-20 04:00N 59°47' E 024°29'611.6
2018-Feb-20 03:30N 59°49' E 024°40'611.7
2018-Feb-20 03:00N 59°50' E 024°52'611.8
2018-Feb-20 02:30N 59°51' E 025°03'611.4
2018-Feb-20 02:00N 59°52' E 025°14'611.2
2018-Feb-20 01:30N 59°53' E 025°26'611.7
2018-Feb-20 01:00N 59°54' E 025°37'1311.5
2018-Feb-19 23:54N 59°57' E 026°01'511.5
2018-Feb-19 23:29N 59°59' E 026°11'511.1
2018-Feb-19 23:00N 60°02' E 026°20'510.8
2018-Feb-19 22:30N 60°06' E 026°26'4 8.5
2018-Feb-19 22:00N 60°09' E 026°32'0 0.6
2018-Feb-19 21:28N 60°09' E 026°31'0 0.1
2018-Feb-19 20:59N 60°09' E 026°31'0 0.0
2018-Feb-19 20:29N 60°09' E 026°31'0 0.1
2018-Feb-19 19:59N 60°09' E 026°31'0 0.0
2018-Feb-19 19:29N 60°09' E 026°31'0 0.0
2018-Feb-19 19:00N 60°09' E 026°31'0 0.1
2018-Feb-19 18:29N 60°09' E 026°31'0 0.0
2018-Feb-19 17:59N 60°09' E 026°31'0 0.0
2018-Feb-19 17:28N 60°09' E 026°31'0 0.0
2018-Feb-19 16:59N 60°09' E 026°31'0 0.0
2018-Feb-19 16:29N 60°09' E 026°31'0 0.1
2018-Feb-19 15:58N 60°09' E 026°31'0 0.0
2018-Feb-19 15:29N 60°09' E 026°31'0 0.0
2018-Feb-19 14:59N 60°09' E 026°31'0 0.0
2018-Feb-19 14:29N 60°09' E 026°31'0 0.0
2018-Feb-19 13:59N 60°09' E 026°31'0 0.1
2018-Feb-19 13:30N 60°09' E 026°31'0 0.0
2018-Feb-19 13:00N 60°09' E 026°31'0 0.0
2018-Feb-19 12:29N 60°09' E 026°31'0 0.0
2018-Feb-19 11:59N 60°09' E 026°31'0 0.1
2018-Feb-19 11:29N 60°09' E 026°31'0 0.1
2018-Feb-19 10:59N 60°09' E 026°31'0 0.0
2018-Feb-19 10:29N 60°09' E 026°31'0 0.0
2018-Feb-19 09:59N 60°09' E 026°31'0 0.0
2018-Feb-19 09:29N 60°09' E 026°31'0 0.0
2018-Feb-19 08:59N 60°09' E 026°31'0 0.0
2018-Feb-19 08:29N 60°09' E 026°31'0 0.1
2018-Feb-19 07:58N 60°09' E 026°31'0 0.0
2018-Feb-19 07:28N 60°09' E 026°31'0 0.0
2018-Feb-19 06:58N 60°09' E 026°31'0 0.0
2018-Feb-19 06:28N 60°09' E 026°31'0 0.0
2018-Feb-19 05:58N 60°09' E 026°31'0 0.0
2018-Feb-19 05:28N 60°09' E 026°31'0 0.0
2018-Feb-19 04:58N 60°09' E 026°31'0 0.0
2018-Feb-19 04:28N 60°09' E 026°31'0 0.0
2018-Feb-19 03:58N 60°09' E 026°31'0 0.0
2018-Feb-19 03:28N 60°09' E 026°31'0 0.0
2018-Feb-19 02:58N 60°09' E 026°31'0 0.1
2018-Feb-19 02:29N 60°09' E 026°31'0 0.0
2018-Feb-19 01:58N 60°09' E 026°31'0 0.0
2018-Feb-19 01:28N 60°09' E 026°31'0 0.0
2018-Feb-19 00:58N 60°09' E 026°31'0 0.0
2018-Feb-19 00:28N 60°09' E 026°31'0 0.0
2018-Feb-18 23:58N 60°09' E 026°31'0 0.0
2018-Feb-18 23:28N 60°09' E 026°31'0 0.0
2018-Feb-18 22:58N 60°09' E 026°31'0 0.0
2018-Feb-18 22:28N 60°09' E 026°31'0 0.0
2018-Feb-18 22:00N 60°09' E 026°31'0 0.0
2018-Feb-18 21:28N 60°09' E 026°31'0 0.0
2018-Feb-18 20:59N 60°09' E 026°31'0 0.0
2018-Feb-18 20:28N 60°09' E 026°31'0 0.0
2018-Feb-18 19:58N 60°09' E 026°31'0 0.0
2018-Feb-18 19:28N 60°09' E 026°31'0 0.0
2018-Feb-18 19:00N 60°09' E 026°31'0 0.1
2018-Feb-18 18:28N 60°09' E 026°31'0 0.0
2018-Feb-18 17:58N 60°09' E 026°31'0 0.0
2018-Feb-18 17:28N 60°09' E 026°31'0 0.0
2018-Feb-18 16:58N 60°09' E 026°31'0 0.0
2018-Feb-18 16:28N 60°09' E 026°31'0 0.1
2018-Feb-18 16:00N 60°09' E 026°31'0 0.0
2018-Feb-18 15:28N 60°09' E 026°31'0 0.0
2018-Feb-18 14:58N 60°09' E 026°31'0 0.0
2018-Feb-18 14:28N 60°09' E 026°31'0 0.0
2018-Feb-18 13:58N 60°09' E 026°31'0 0.0
2018-Feb-18 13:28N 60°09' E 026°31'0 0.1
2018-Feb-18 12:58N 60°09' E 026°31'0 0.0
2018-Feb-18 12:28N 60°09' E 026°31'0 0.0
2018-Feb-18 11:58N 60°09' E 026°31'0 0.0
2018-Feb-18 11:28N 60°09' E 026°31'0 0.1
2018-Feb-18 10:58N 60°09' E 026°31'0 0.1
2018-Feb-18 10:28N 60°09' E 026°31'0 0.0
2018-Feb-18 09:59N 60°09' E 026°31'0 0.0
2018-Feb-18 09:28N 60°09' E 026°31'0 0.0
2018-Feb-18 08:58N 60°09' E 026°31'0 0.0
2018-Feb-18 08:28N 60°09' E 026°31'0 0.0
2018-Feb-18 07:58N 60°09' E 026°31'0 0.2
2018-Feb-18 07:30N 60°09' E 026°31'0 0.8
2018-Feb-18 07:01N 60°09' E 026°31'0 0.4
2018-Feb-18 06:31N 60°09' E 026°32'0 0.4
2018-Feb-18 06:00N 60°09' E 026°31'1 2.3
2018-Feb-18 05:30N 60°08' E 026°30'0 0.4
2018-Feb-18 05:00N 60°08' E 026°30'0 0.6
2018-Feb-18 04:30N 60°08' E 026°30'0 0.6
2018-Feb-18 04:00N 60°08' E 026°31'0 0.6
2018-Feb-18 03:30N 60°08' E 026°31'0 0.4
2018-Feb-18 03:01N 60°09' E 026°31'0 0.2
2018-Feb-18 02:30N 60°09' E 026°31'0 0.3
2018-Feb-18 02:01N 60°08' E 026°31'0 0.5
2018-Feb-18 01:30N 60°09' E 026°32'0 0.1
2018-Feb-18 01:00N 60°09' E 026°32'0 0.3
2018-Feb-18 00:30N 60°09' E 026°32'0 0.3
2018-Feb-18 00:00N 60°09' E 026°31'0 0.2
2018-Feb-17 23:31N 60°09' E 026°31'0 0.3
2018-Feb-17 23:01N 60°09' E 026°32'0 0.4
2018-Feb-17 22:31N 60°09' E 026°32'0 0.3
2018-Feb-17 22:01N 60°09' E 026°32'0 1.0
2018-Feb-17 21:30N 60°09' E 026°31'0 0.1
2018-Feb-17 20:58N 60°09' E 026°31'0 0.5
2018-Feb-17 20:30N 60°09' E 026°31'0 0.6
2018-Feb-17 20:00N 60°09' E 026°32'1 1.7
2018-Feb-17 19:30N 60°09' E 026°30'0 0.1
2018-Feb-17 19:00N 60°08' E 026°30'0 0.1
2018-Feb-17 18:30N 60°08' E 026°30'0 0.3
2018-Feb-17 17:57N 60°09' E 026°30'0 0.5
2018-Feb-17 17:30N 60°09' E 026°31'0 0.3
2018-Feb-17 17:00N 60°09' E 026°31'0 0.0
2018-Feb-17 16:30N 60°09' E 026°31'0 0.0
2018-Feb-17 16:00N 60°09' E 026°31'0 0.0
2018-Feb-17 15:30N 60°09' E 026°31'0 0.1
2018-Feb-17 15:00N 60°09' E 026°31'0 0.0
2018-Feb-17 14:30N 60°09' E 026°31'0 0.0
2018-Feb-17 14:00N 60°09' E 026°31'0 0.0
2018-Feb-17 13:30N 60°09' E 026°31'0 0.1
2018-Feb-17 13:00N 60°09' E 026°31'0 0.0
2018-Feb-17 12:30N 60°09' E 026°31'0 0.0
2018-Feb-17 12:00N 60°09' E 026°31'0 0.0
2018-Feb-17 11:30N 60°09' E 026°31'0 0.1
2018-Feb-17 11:00N 60°09' E 026°31'1 1.2
2018-Feb-17 10:30N 60°08' E 026°30'4 8.9
2018-Feb-17 10:00N 60°04' E 026°33'510.7
2018-Feb-17 09:30N 60°01' E 026°42'612.2
2018-Feb-17 09:01N 60°00' E 026°54'611.7
2018-Feb-17 08:30N 60°00' E 027°06'612.1
2018-Feb-17 08:00N 60°03' E 027°16'510.8
2018-Feb-17 07:30N 60°06' E 027°25'5 9.1
2018-Feb-17 07:01N 60°09' E 027°33'5 9.9
2018-Feb-17 06:31N 60°11' E 027°42'4 8.3
2018-Feb-17 06:01N 60°13' E 027°49'4 7.5
2018-Feb-17 05:30N 60°16' E 027°53'3 6.1
2018-Feb-17 05:00N 60°19' E 027°57'4 8.4
2018-Feb-17 04:30N 60°22' E 028°02'510.6
2018-Feb-17 04:00N 60°25' E 028°10'510.9
2018-Feb-17 03:30N 60°28' E 028°20'  
Track history (hours):
 
Tides and Currents Weather Stations Pressure Air Temp Water Temp Dewpoint Dewpoint Depression Visibility Wind Speed Wind Dir Waves Ship Positions

Tonic Sea

Last reported at 2018-Feb-23 01:00 UTC. Time now 2018-Feb-23 01:11 UTC.
Position N 57°45' E 010°55'.

Length 229 m; draft 14.4 m.

Type: Cargo ship. MMSI: 636015479.

Date/timePositionNaut miles runAvg speedWind from/ knotsBaromVisibWave heightAir tempDewpointWater temp
2018-Feb-23 01:00N 57°45' E 010°55'611.6
2018-Feb-23 00:30N 57°40' E 011°02'611.7
2018-Feb-23 00:00N 57°36' E 011°10'611.4
2018-Feb-22 23:30N 57°32' E 011°18'611.4
2018-Feb-22 23:00N 57°28' E 011°25'611.2
2018-Feb-22 22:30N 57°23' E 011°29'611.5
2018-Feb-22 22:00N 57°18' E 011°33'12510.1
2018-Feb-22 09:34N 55°13' E 011°06'111.1
2018-Feb-22 09:30N 55°12' E 011°06'510.8
2018-Feb-22 09:00N 55°08' E 010°60'612.0
2018-Feb-22 08:30N 55°03' E 010°60'611.6
2018-Feb-22 08:00N 54°57' E 010°55'612.1
2018-Feb-22 07:30N 54°52' E 010°50'612.2
2018-Feb-22 07:01N 54°46' E 010°48'510.2
2018-Feb-22 06:30N 54°41' E 010°47'510.5
2018-Feb-22 06:00N 54°38' E 010°54'611.8
2018-Feb-22 05:30N 54°36' E 011°04'611.7
2018-Feb-22 05:00N 54°35' E 011°14'612.3
2018-Feb-22 04:31N 54°32' E 011°23'1611.8
2018-Feb-22 03:10N 54°26' E 011°48'211.8
2018-Feb-22 03:00N 54°26' E 011°52'611.8
2018-Feb-22 02:30N 54°26' E 012°02'611.0
2018-Feb-22 01:58N 54°28' E 012°11'6211.3
2018-Feb-21 20:28N 54°60' E 013°44'811.9
2018-Feb-21 19:46N 55°03' E 013°57'811.1
2018-Feb-21 19:03N 55°07' E 014°09'111.8
2018-Feb-21 18:58N 55°08' E 014°10'511.9
2018-Feb-21 18:30N 55°12' E 014°16'711.8
2018-Feb-21 17:54N 55°18' E 014°24'511.9
2018-Feb-21 17:27N 55°22' E 014°30'611.6
2018-Feb-21 16:56N 55°26' E 014°37'511.8
2018-Feb-21 16:30N 55°29' E 014°45'611.8
2018-Feb-21 16:00N 55°31' E 014°54'611.9
2018-Feb-21 15:30N 55°34' E 015°04'611.8
2018-Feb-21 15:00N 55°36' E 015°13'611.6
2018-Feb-21 14:30N 55°38' E 015°23'611.6
2018-Feb-21 14:00N 55°40' E 015°33'611.7
2018-Feb-21 13:30N 55°41' E 015°43'611.7
2018-Feb-21 13:00N 55°43' E 015°53'611.7
2018-Feb-21 12:30N 55°44' E 016°03'611.5
2018-Feb-21 12:00N 55°46' E 016°13'611.6
2018-Feb-21 11:30N 55°47' E 016°23'611.7
2018-Feb-21 11:00N 55°49' E 016°33'611.6
2018-Feb-21 10:30N 55°50' E 016°43'29711.4
2018-Feb-20 08:22N 59°33' E 022°50'411.8
2018-Feb-20 08:00N 59°34' E 022°58'611.8
2018-Feb-20 07:30N 59°36' E 023°09'612.2
2018-Feb-20 07:00N 59°38' E 023°21'611.9
2018-Feb-20 06:30N 59°39' E 023°32'611.8
2018-Feb-20 06:00N 59°41' E 023°44'611.9
2018-Feb-20 05:30N 59°42' E 023°55'612.0
2018-Feb-20 04:58N 59°44' E 024°07'611.9
2018-Feb-20 04:30N 59°46' E 024°18'611.9
2018-Feb-20 04:00N 59°47' E 024°29'611.6
2018-Feb-20 03:30N 59°49' E 024°40'611.7
2018-Feb-20 03:00N 59°50' E 024°52'611.8
2018-Feb-20 02:30N 59°51' E 025°03'611.4
2018-Feb-20 02:00N 59°52' E 025°14'611.2
2018-Feb-20 01:30N 59°53' E 025°26'611.7
2018-Feb-20 01:00N 59°54' E 025°37'1311.5
2018-Feb-19 23:54N 59°57' E 026°01'511.5
2018-Feb-19 23:29N 59°59' E 026°11'511.1
2018-Feb-19 23:00N 60°02' E 026°20'510.8
2018-Feb-19 22:30N 60°06' E 026°26'4 8.5
2018-Feb-19 22:00N 60°09' E 026°32'0 0.6
2018-Feb-19 21:28N 60°09' E 026°31'0 0.1
2018-Feb-19 20:59N 60°09' E 026°31'0 0.0
2018-Feb-19 20:29N 60°09' E 026°31'0 0.1
2018-Feb-19 19:59N 60°09' E 026°31'0 0.0
2018-Feb-19 19:29N 60°09' E 026°31'0 0.0
2018-Feb-19 19:00N 60°09' E 026°31'0 0.1
2018-Feb-19 18:29N 60°09' E 026°31'0 0.0
2018-Feb-19 17:59N 60°09' E 026°31'0 0.0
2018-Feb-19 17:28N 60°09' E 026°31'0 0.0
2018-Feb-19 16:59N 60°09' E 026°31'0 0.0
2018-Feb-19 16:29N 60°09' E 026°31'0 0.1
2018-Feb-19 15:58N 60°09' E 026°31'0 0.0
2018-Feb-19 15:29N 60°09' E 026°31'0 0.0
2018-Feb-19 14:59N 60°09' E 026°31'0 0.0
2018-Feb-19 14:29N 60°09' E 026°31'0 0.0
2018-Feb-19 13:59N 60°09' E 026°31'0 0.1
2018-Feb-19 13:30N 60°09' E 026°31'0 0.0
2018-Feb-19 13:00N 60°09' E 026°31'0 0.0
2018-Feb-19 12:29N 60°09' E 026°31'0 0.0
2018-Feb-19 11:59N 60°09' E 026°31'0 0.1
2018-Feb-19 11:29N 60°09' E 026°31'0 0.1
2018-Feb-19 10:59N 60°09' E 026°31'0 0.0
2018-Feb-19 10:29N 60°09' E 026°31'0 0.0
2018-Feb-19 09:59N 60°09' E 026°31'0 0.0
2018-Feb-19 09:29N 60°09' E 026°31'0 0.0
2018-Feb-19 08:59N 60°09' E 026°31'0 0.0
2018-Feb-19 08:29N 60°09' E 026°31'0 0.1
2018-Feb-19 07:58N 60°09' E 026°31'0 0.0
2018-Feb-19 07:28N 60°09' E 026°31'0 0.0
2018-Feb-19 06:58N 60°09' E 026°31'0 0.0
2018-Feb-19 06:28N 60°09' E 026°31'0 0.0
2018-Feb-19 05:58N 60°09' E 026°31'0 0.0
2018-Feb-19 05:28N 60°09' E 026°31'0 0.0
2018-Feb-19 04:58N 60°09' E 026°31'0 0.0
2018-Feb-19 04:28N 60°09' E 026°31'0 0.0
2018-Feb-19 03:58N 60°09' E 026°31'0 0.0
2018-Feb-19 03:28N 60°09' E 026°31'0 0.0
2018-Feb-19 02:58N 60°09' E 026°31'0 0.1
2018-Feb-19 02:29N 60°09' E 026°31'0 0.0
2018-Feb-19 01:58N 60°09' E 026°31'0 0.0
2018-Feb-19 01:28N 60°09' E 026°31'0 0.0
2018-Feb-19 00:58N 60°09' E 026°31'0 0.0
2018-Feb-19 00:28N 60°09' E 026°31'0 0.0
2018-Feb-18 23:58N 60°09' E 026°31'0 0.0
2018-Feb-18 23:28N 60°09' E 026°31'0 0.0
2018-Feb-18 22:58N 60°09' E 026°31'0 0.0
2018-Feb-18 22:28N 60°09' E 026°31'0 0.0
2018-Feb-18 22:00N 60°09' E 026°31'0 0.0
2018-Feb-18 21:28N 60°09' E 026°31'0 0.0
2018-Feb-18 20:59N 60°09' E 026°31'0 0.0
2018-Feb-18 20:28N 60°09' E 026°31'0 0.0
2018-Feb-18 19:58N 60°09' E 026°31'0 0.0
2018-Feb-18 19:28N 60°09' E 026°31'0 0.0
2018-Feb-18 19:00N 60°09' E 026°31'0 0.1
2018-Feb-18 18:28N 60°09' E 026°31'0 0.0
2018-Feb-18 17:58N 60°09' E 026°31'0 0.0
2018-Feb-18 17:28N 60°09' E 026°31'0 0.0
2018-Feb-18 16:58N 60°09' E 026°31'0 0.0
2018-Feb-18 16:28N 60°09' E 026°31'0 0.1
2018-Feb-18 16:00N 60°09' E 026°31'0 0.0
2018-Feb-18 15:28N 60°09' E 026°31'0 0.0
2018-Feb-18 14:58N 60°09' E 026°31'0 0.0
2018-Feb-18 14:28N 60°09' E 026°31'0 0.0
2018-Feb-18 13:58N 60°09' E 026°31'0 0.0
2018-Feb-18 13:28N 60°09' E 026°31'0 0.1
2018-Feb-18 12:58N 60°09' E 026°31'0 0.0
2018-Feb-18 12:28N 60°09' E 026°31'0 0.0
2018-Feb-18 11:58N 60°09' E 026°31'0 0.0
2018-Feb-18 11:28N 60°09' E 026°31'0 0.1
2018-Feb-18 10:58N 60°09' E 026°31'0 0.1
2018-Feb-18 10:28N 60°09' E 026°31'0 0.0
2018-Feb-18 09:59N 60°09' E 026°31'0 0.0
2018-Feb-18 09:28N 60°09' E 026°31'0 0.0
2018-Feb-18 08:58N 60°09' E 026°31'0 0.0
2018-Feb-18 08:28N 60°09' E 026°31'0 0.0
2018-Feb-18 07:58N 60°09' E 026°31'0 0.2
2018-Feb-18 07:30N 60°09' E 026°31'0 0.8
2018-Feb-18 07:01N 60°09' E 026°31'0 0.4
2018-Feb-18 06:31N 60°09' E 026°32'0 0.4
2018-Feb-18 06:00N 60°09' E 026°31'1 2.3
2018-Feb-18 05:30N 60°08' E 026°30'0 0.4
2018-Feb-18 05:00N 60°08' E 026°30'0 0.6
2018-Feb-18 04:30N 60°08' E 026°30'0 0.6
2018-Feb-18 04:00N 60°08' E 026°31'0 0.6
2018-Feb-18 03:30N 60°08' E 026°31'0 0.4
2018-Feb-18 03:01N 60°09' E 026°31'0 0.2
2018-Feb-18 02:30N 60°09' E 026°31'0 0.3
2018-Feb-18 02:01N 60°08' E 026°31'0 0.5
2018-Feb-18 01:30N 60°09' E 026°32'0 0.1
2018-Feb-18 01:00N 60°09' E 026°32'0 0.3
2018-Feb-18 00:30N 60°09' E 026°32'0 0.3
2018-Feb-18 00:00N 60°09' E 026°31'0 0.2
2018-Feb-17 23:31N 60°09' E 026°31'0 0.3
2018-Feb-17 23:01N 60°09' E 026°32'0 0.4
2018-Feb-17 22:31N 60°09' E 026°32'0 0.3
2018-Feb-17 22:01N 60°09' E 026°32'0 1.0
2018-Feb-17 21:30N 60°09' E 026°31'0 0.1
2018-Feb-17 20:58N 60°09' E 026°31'0 0.5
2018-Feb-17 20:30N 60°09' E 026°31'0 0.6
2018-Feb-17 20:00N 60°09' E 026°32'1 1.7
2018-Feb-17 19:30N 60°09' E 026°30'0 0.1
2018-Feb-17 19:00N 60°08' E 026°30'0 0.1
2018-Feb-17 18:30N 60°08' E 026°30'0 0.3
2018-Feb-17 17:57N 60°09' E 026°30'0 0.5
2018-Feb-17 17:30N 60°09' E 026°31'0 0.3
2018-Feb-17 17:00N 60°09' E 026°31'0 0.0
2018-Feb-17 16:30N 60°09' E 026°31'0 0.0
2018-Feb-17 16:00N 60°09' E 026°31'0 0.0
2018-Feb-17 15:30N 60°09' E 026°31'0 0.1
2018-Feb-17 15:00N 60°09' E 026°31'0 0.0
2018-Feb-17 14:30N 60°09' E 026°31'0 0.0
2018-Feb-17 14:00N 60°09' E 026°31'0 0.0
2018-Feb-17 13:30N 60°09' E 026°31'0 0.1
2018-Feb-17 13:00N 60°09' E 026°31'0 0.0
2018-Feb-17 12:30N 60°09' E 026°31'0 0.0
2018-Feb-17 12:00N 60°09' E 026°31'0 0.0
2018-Feb-17 11:30N 60°09' E 026°31'0 0.1
2018-Feb-17 11:00N 60°09' E 026°31'1 1.2
2018-Feb-17 10:30N 60°08' E 026°30'4 8.9
2018-Feb-17 10:00N 60°04' E 026°33'510.7
2018-Feb-17 09:30N 60°01' E 026°42'612.2
2018-Feb-17 09:01N 60°00' E 026°54'611.7
2018-Feb-17 08:30N 60°00' E 027°06'612.1
2018-Feb-17 08:00N 60°03' E 027°16'510.8
2018-Feb-17 07:30N 60°06' E 027°25'5 9.1
2018-Feb-17 07:01N 60°09' E 027°33'5 9.9
2018-Feb-17 06:31N 60°11' E 027°42'4 8.3
2018-Feb-17 06:01N 60°13' E 027°49'4 7.5
2018-Feb-17 05:30N 60°16' E 027°53'3 6.1
2018-Feb-17 05:00N 60°19' E 027°57'4 8.4
2018-Feb-17 04:30N 60°22' E 028°02'510.6
2018-Feb-17 04:00N 60°25' E 028°10'510.9
2018-Feb-17 03:30N 60°28' E 028°20'  

Dump ship's entire track history